Milford, PA (18337)

3:04 PM EDT on May 06, 2015 (GMT -0400)
Oak Manor Drive | | Change Station
CLOSE
Current Station
Personal Weather Station
Location: Milford, PA
Elevation: 902 ft
Nearby Weather Stations

Elev 902 ft 41.31 °N, 74.84 °W | Updated 13 minutes ago

Overcast
Overcast
61.2 °F
Feels Like 61.2 °F
N
0.0
Wind Variable Wind from WSW

Today
High -- | Low -- °F
--% Chance of Precip.
Yesterday
High -- | Low -- °F
Precip. -- in
5:50 AM 8:01 PM
Waning Gibbous, 93% visible
Pressure 30.28 in
Visibility 10.0 miles
Clouds Overcast 7000 ft
Dew Point 55 °F
Humidity 79%
Rainfall 0.22 in
Snow Depth Not available.
UV 3 out of 12
Pollen 3.80 out of 12
Air Quality Not available.
Flu Activity Sporadic
METAR KFWN 061853Z AUTO 00000KT 10SM OVC070 19/07 A3028 RMK AO2 SLP252 T01890072

More Conditions Fewer Conditions

Pressure 30.28 in
Visibility 10.0 miles
Clouds Overcast 7000 ft
Dew Point 55 °F
Humidity 79%
Rainfall 0.22 in
Snow Depth Not available.
UV 3 out of 12
Pollen 3.80 out of 12
Air Quality Not available.
Flu Activity Sporadic
METAR KFWN 061853Z AUTO 00000KT 10SM OVC070 19/07 A3028 RMK AO2 SLP252 T01890072

More Conditions Fewer Conditions

10-Day Weather Forecast

Almanac

Astronomy

May. 06, 2015 Rise Set
Actual Time
Civil Twilight
Nautical Twilight
Astronomical Twilight
Moon
Length of Visible Light
Length of Day
Tomorrow will be .
, % of the Moon is Illuminated

Today's Extremes

State Highs State Lows

Community

WunderPhotos

Upload Photos

1,818,993 photos uploaded!

WunderBlogs® & News

Nearby

Air Quality

  Air Quality AQ Index Pollutant
Not available.

Snow Depth

Station Depth Elevation

Earthquake Activity

City Distance Mag. Time & Date
Minimum magnitude displayed is 2.5.

Coastal Water Temperatures

Place Temperature

Stations

Nearby Weather Stations

Station Location Temp. Windchill Dew Point Humidity Wind Precip. Elev Updated Type